Time;durP1;ratioP1;P1;durP2;ratioP2;P2;SDS_P1;SDS_P2;PMS_P1;PMS_P2;Temp;Humidity;BMP_temperature;BMP_pressure;BME280_temperature;BME280_humidity;BME280_pressure;Samples;Min_cycle;Max_cycle;Signal;HPM_P1;HPM_P2
2023/06/14 00:02:14;;;;;;;4.35;1.50;;;;;;;;;;5010597;28;20095;-62
2023/06/14 00:04:41;;;;;;;5.97;1.83;;;;;;;;;;5015956;28;20041;-63
2023/06/14 00:07:08;;;;;;;5.65;2.03;;;;;;;;;;5010726;28;20022;-62
2023/06/14 00:09:33;;;;;;;6.00;1.92;;;;;;;;;;5011142;28;20021;-62
2023/06/14 00:11:58;;;;;;;5.07;1.93;;;;;;;;;;5015168;28;20080;-63
2023/06/14 00:14:23;;;;;;;5.07;1.80;;;;;;;;;;5028048;28;20034;-63
2023/06/14 00:16:49;;;;;;;4.47;1.80;;;;;;;;;;5037524;28;20032;-62
2023/06/14 00:19:14;;;;;;;5.60;1.92;;;;;;;;;;5021320;28;20017;-62
2023/06/14 00:21:39;;;;;;;5.17;1.60;;;;;;;;;;5027171;28;20075;-63
2023/06/14 00:24:04;;;;;;;4.18;1.80;;;;;;;;;;5027021;28;20096;-62
2023/06/14 00:26:30;;;;;;;4.75;1.90;;;;;;;;;;5024545;28;20028;-62
2023/06/14 00:28:56;;;;;;;3.80;1.40;;;;;;;;;;5021915;28;20108;-63
2023/06/14 00:31:21;;;;;;;4.50;1.60;;;;;;;;;;5026888;28;20439;-62
2023/06/14 00:33:46;;;;;;;4.13;1.73;;;;;;;;;;5023420;28;20021;-62
2023/06/14 00:36:12;;;;;;;4.30;1.80;;;;;;;;;;5023022;28;20029;-62
2023/06/14 00:38:37;;;;;;;4.37;1.70;;;;;;;;;;5039781;28;20045;-62
2023/06/14 00:41:02;;;;;;;6.40;2.00;;;;;;;;;;5026368;28;20017;-62
2023/06/14 00:43:27;;;;;;;5.47;1.77;;;;;;;;;;5026222;28;20014;-63
2023/06/14 00:45:52;;;;;;;7.55;2.08;;;;;;;;;;5028699;28;20053;-62
2023/06/14 00:48:17;;;;;;;4.88;1.80;;;;;;;;;;5016676;28;20026;-62
2023/06/14 00:50:45;;;;;;;4.30;1.80;;;;;;;;;;5021110;28;20033;-63
2023/06/14 00:53:10;;;;;;;6.20;2.25;;;;;;;;;;5016010;28;20487;-63
2023/06/14 00:55:36;;;;;;;4.18;1.60;;;;;;;;;;5039911;28;20029;-63
2023/06/14 00:58:01;;;;;;;4.23;1.50;;;;;;;;;;5031170;28;20018;-62
2023/06/14 01:00:28;;;;;;;4.10;1.80;;;;;;;;;;5035954;28;20024;-62
2023/06/14 01:02:53;;;;;;;4.38;1.85;;;;;;;;;;5027468;28;20033;-62
2023/06/14 01:05:18;;;;;;;5.60;1.92;;;;;;;;;;5037611;28;20025;-62
2023/06/14 01:07:51;;;;;;;6.57;1.98;;;;;;;;;;5028237;28;20057;-62
2023/06/14 01:10:16;;;;;;;5.85;2.10;;;;;;;;;;5021329;28;20038;-63
2023/06/14 01:12:56;;;;;;;4.63;2.03;;;;;;;;;;5037535;28;20127;-62
2023/06/14 01:15:21;;;;;;;5.80;1.80;;;;;;;;;;5016593;28;20026;-62
2023/06/14 01:17:51;;;;;;;4.40;1.90;;;;;;;;;;5024408;28;20036;-62
2023/06/14 01:20:17;;;;;;;4.95;2.00;;;;;;;;;;5022832;28;20021;-63
2023/06/14 01:22:54;;;;;;;4.43;1.90;;;;;;;;;;5029724;28;20389;-62
2023/06/14 01:25:23;;;;;;;5.05;1.90;;;;;;;;;;5027465;28;20017;-62
2023/06/14 01:27:49;;;;;;;5.72;2.30;;;;;;;;;;5027241;28;20023;-62
2023/06/14 01:30:15;;;;;;;7.10;2.22;;;;;;;;;;5028556;28;20025;-63
2023/06/14 01:32:40;;;;;;;6.95;2.10;;;;;;;;;;5026638;28;20033;-62
2023/06/14 01:35:05;;;;;;;6.22;2.20;;;;;;;;;;5026496;28;20485;-62
2023/06/14 01:37:31;;;;;;;4.90;2.00;;;;;;;;;;5030246;28;20382;-62
2023/06/14 01:39:56;;;;;;;4.60;1.90;;;;;;;;;;5026753;28;20026;-62
2023/06/14 01:42:22;;;;;;;4.25;2.20;;;;;;;;;;5031798;28;20025;-62
2023/06/14 01:44:48;;;;;;;6.68;1.90;;;;;;;;;;5029434;28;20024;-62
2023/06/14 01:47:14;;;;;;;6.73;2.30;;;;;;;;;;5023860;28;20025;-62
2023/06/14 01:49:40;;;;;;;7.55;2.45;;;;;;;;;;5024366;28;20890;-62
2023/06/14 01:52:05;;;;;;;6.15;2.10;;;;;;;;;;5024420;28;20034;-63
2023/06/14 01:54:31;;;;;;;4.97;2.03;;;;;;;;;;5029308;28;20032;-62
2023/06/14 01:56:56;;;;;;;5.80;2.28;;;;;;;;;;5028164;28;20372;-63
2023/06/14 01:59:21;;;;;;;6.65;2.30;;;;;;;;;;5026042;28;20080;-62
2023/06/14 02:01:46;;;;;;;5.03;2.17;;;;;;;;;;5022560;28;20075;-62
2023/06/14 02:04:12;;;;;;;4.90;2.20;;;;;;;;;;5029961;28;20029;-62
2023/06/14 02:06:37;;;;;;;4.68;2.00;;;;;;;;;;5022152;28;20084;-62
2023/06/14 02:09:02;;;;;;;5.10;2.40;;;;;;;;;;5027361;28;20022;-62
2023/06/14 02:11:28;;;;;;;5.00;2.10;;;;;;;;;;5027888;28;20517;-62
2023/06/14 02:13:53;;;;;;;4.10;1.92;;;;;;;;;;5018056;28;20021;-63
2023/06/14 02:16:18;;;;;;;5.63;1.80;;;;;;;;;;5021727;28;20094;-62
2023/06/14 02:18:43;;;;;;;4.85;2.00;;;;;;;;;;5026746;28;20025;-62
2023/06/14 02:21:08;;;;;;;5.00;2.20;;;;;;;;;;5018264;28;20018;-62
2023/06/14 02:23:33;;;;;;;6.63;2.37;;;;;;;;;;5025548;28;20167;-62
2023/06/14 02:25:58;;;;;;;6.10;2.40;;;;;;;;;;5033139;28;20024;-62
2023/06/14 02:28:24;;;;;;;6.63;2.63;;;;;;;;;;5022390;28;20430;-63
2023/06/14 02:30:49;;;;;;;5.85;2.30;;;;;;;;;;5030492;28;20029;-62
2023/06/14 02:33:14;;;;;;;4.73;2.30;;;;;;;;;;5025157;28;20029;-62
2023/06/14 02:35:40;;;;;;;5.68;2.10;;;;;;;;;;5028549;28;20482;-63
2023/06/14 02:38:05;;;;;;;5.80;2.50;;;;;;;;;;5025736;28;20408;-62
2023/06/14 02:40:30;;;;;;;5.28;2.15;;;;;;;;;;5025765;28;20021;-62
2023/06/14 02:42:55;;;;;;;7.63;2.63;;;;;;;;;;5018295;28;20053;-62
2023/06/14 02:45:20;;;;;;;5.57;2.20;;;;;;;;;;5021427;28;20397;-63
2023/06/14 02:47:46;;;;;;;4.88;2.13;;;;;;;;;;5018382;28;20037;-62
2023/06/14 02:50:11;;;;;;;4.73;2.43;;;;;;;;;;5019828;28;20043;-62
2023/06/14 02:52:36;;;;;;;5.28;2.30;;;;;;;;;;5021090;28;20456;-62
2023/06/14 02:55:02;;;;;;;5.85;2.30;;;;;;;;;;5024295;28;20104;-62
2023/06/14 02:57:27;;;;;;;6.13;2.90;;;;;;;;;;5028811;28;20105;-62
2023/06/14 02:59:52;;;;;;;6.32;2.60;;;;;;;;;;5021169;28;20029;-62
2023/06/14 03:02:17;;;;;;;5.53;2.20;;;;;;;;;;5030414;28;20097;-62
2023/06/14 03:04:44;;;;;;;5.05;2.33;;;;;;;;;;5028158;28;20613;-62
2023/06/14 03:07:09;;;;;;;4.80;2.28;;;;;;;;;;5027671;28;20422;-63
2023/06/14 03:09:36;;;;;;;5.45;2.13;;;;;;;;;;5023778;28;20044;-62
2023/06/14 03:12:02;;;;;;;7.32;2.45;;;;;;;;;;5028926;28;20076;-62
2023/06/14 03:14:29;;;;;;;5.75;2.78;;;;;;;;;;5025694;28;20022;-63
2023/06/14 03:16:56;;;;;;;7.88;2.42;;;;;;;;;;5024975;28;20029;-62
2023/06/14 03:19:21;;;;;;;5.97;2.22;;;;;;;;;;5016325;28;20497;-64
2023/06/14 03:21:47;;;;;;;6.00;2.40;;;;;;;;;;5021251;28;20055;-64
2023/06/14 03:24:12;;;;;;;6.05;2.50;;;;;;;;;;5018118;28;21861;-64
2023/06/14 03:26:37;;;;;;;7.07;2.47;;;;;;;;;;5027233;28;20020;-64
2023/06/14 03:29:02;;;;;;;5.57;2.10;;;;;;;;;;5029184;28;20750;-64
2023/06/14 03:31:32;;;;;;;6.75;2.38;;;;;;;;;;5028315;28;20033;-64
2023/06/14 03:33:57;;;;;;;6.57;2.60;;;;;;;;;;5030010;28;20091;-64
2023/06/14 03:36:22;;;;;;;5.63;2.10;;;;;;;;;;5032021;28;20063;-64
2023/06/14 03:38:47;;;;;;;4.22;2.05;;;;;;;;;;5019013;28;20030;-63
2023/06/14 03:41:13;;;;;;;5.00;2.43;;;;;;;;;;5020549;28;20500;-63
2023/06/14 03:43:38;;;;;;;5.18;2.30;;;;;;;;;;5027198;28;20030;-64
2023/06/14 03:46:03;;;;;;;5.00;2.58;;;;;;;;;;5032140;28;20447;-63
2023/06/14 03:48:28;;;;;;;4.60;2.13;;;;;;;;;;5027461;28;20033;-63
2023/06/14 03:50:54;;;;;;;4.85;2.25;;;;;;;;;;5021168;28;20025;-63
2023/06/14 03:53:23;;;;;;;4.70;2.20;;;;;;;;;;5023593;28;20433;-64
2023/06/14 03:55:48;;;;;;;4.70;2.10;;;;;;;;;;5021376;28;20033;-63
2023/06/14 03:58:14;;;;;;;5.60;2.30;;;;;;;;;;5028660;28;20017;-63
2023/06/14 04:00:40;;;;;;;5.97;2.50;;;;;;;;;;5026724;28;20022;-63
2023/06/14 04:03:05;;;;;;;5.93;2.20;;;;;;;;;;5026952;28;20024;-63
2023/06/14 04:05:31;;;;;;;8.18;2.40;;;;;;;;;;5021574;28;20026;-63
2023/06/14 04:07:56;;;;;;;5.70;2.15;;;;;;;;;;5020688;28;20053;-63
2023/06/14 04:10:22;;;;;;;6.15;2.58;;;;;;;;;;5019313;28;20448;-64
2023/06/14 04:12:47;;;;;;;9.30;2.77;;;;;;;;;;5025123;28;20017;-63
2023/06/14 04:15:12;;;;;;;6.30;2.72;;;;;;;;;;5020587;28;20436;-63
2023/06/14 04:17:37;;;;;;;5.50;2.40;;;;;;;;;;5024782;28;20423;-63
2023/06/14 04:20:05;;;;;;;4.60;2.15;;;;;;;;;;5021694;28;20030;-63
2023/06/14 04:22:31;;;;;;;6.72;2.50;;;;;;;;;;5017708;28;20025;-63
2023/06/14 04:24:56;;;;;;;6.57;2.28;;;;;;;;;;5024949;28;20109;-63
2023/06/14 04:27:24;;;;;;;6.40;2.13;;;;;;;;;;5016366;28;20033;-64
2023/06/14 04:29:53;;;;;;;4.70;2.10;;;;;;;;;;5022155;28;20056;-64
2023/06/14 04:32:18;;;;;;;5.70;2.50;;;;;;;;;;5031140;28;20025;-64
2023/06/14 04:34:43;;;;;;;6.68;2.60;;;;;;;;;;5020568;28;20037;-63
2023/06/14 04:37:09;;;;;;;4.93;2.37;;;;;;;;;;5010388;28;20068;-63
2023/06/14 04:39:35;;;;;;;5.85;2.40;;;;;;;;;;5011798;28;20038;-63
2023/06/14 04:42:00;;;;;;;5.38;2.30;;;;;;;;;;5016662;28;20481;-64
2023/06/14 04:44:29;;;;;;;5.40;2.70;;;;;;;;;;5013264;28;20478;-64
2023/06/14 04:46:56;;;;;;;5.00;2.63;;;;;;;;;;5028485;28;20036;-61
2023/06/14 04:49:23;;;;;;;6.05;2.70;;;;;;;;;;5019113;28;20392;-62
2023/06/14 04:51:50;;;;;;;4.85;2.50;;;;;;;;;;5016323;28;20104;-62
2023/06/14 04:54:16;;;;;;;6.00;2.95;;;;;;;;;;5015891;28;20235;-63
2023/06/14 04:56:47;;;;;;;5.18;2.80;;;;;;;;;;5020995;28;20849;-63
2023/06/14 04:59:14;;;;;;;5.63;2.85;;;;;;;;;;5026203;28;20400;-62
2023/06/14 05:01:40;;;;;;;6.13;2.80;;;;;;;;;;5010650;28;20052;-63
2023/06/14 05:04:05;;;;;;;7.38;2.88;;;;;;;;;;5028618;28;20056;-63
2023/06/14 05:06:30;;;;;;;5.83;3.00;;;;;;;;;;5032055;28;20026;-63
2023/06/14 05:08:56;;;;;;;6.85;2.75;;;;;;;;;;5024398;28;20017;-63
2023/06/14 05:11:23;;;;;;;5.70;2.67;;;;;;;;;;5035664;28;20021;-63
2023/06/14 05:13:49;;;;;;;5.68;2.92;;;;;;;;;;5012583;28;20520;-63
2023/06/14 05:16:15;;;;;;;7.55;3.03;;;;;;;;;;5024048;28;20017;-63
2023/06/14 05:18:41;;;;;;;5.68;3.00;;;;;;;;;;5031376;28;20029;-63
2023/06/14 05:21:06;;;;;;;5.35;3.10;;;;;;;;;;5035079;28;20032;-62
2023/06/14 05:23:31;;;;;;;6.23;3.00;;;;;;;;;;5018528;28;20359;-61
2023/06/14 05:25:56;;;;;;;6.82;3.75;;;;;;;;;;5021026;28;20104;-62
2023/06/14 05:28:21;;;;;;;7.83;3.13;;;;;;;;;;5020173;28;20482;-60
2023/06/14 05:30:47;;;;;;;6.13;3.20;;;;;;;;;;5022850;28;20057;-61
2023/06/14 05:33:12;;;;;;;7.10;2.75;;;;;;;;;;5017379;28;20667;-60
2023/06/14 05:35:37;;;;;;;5.83;2.73;;;;;;;;;;5031036;28;20025;-61
2023/06/14 05:38:03;;;;;;;6.13;3.03;;;;;;;;;;5029937;28;20022;-60
2023/06/14 05:40:28;;;;;;;5.50;3.00;;;;;;;;;;5012735;28;20140;-60
2023/06/14 05:42:53;;;;;;;5.70;3.20;;;;;;;;;;5013341;28;20026;-60
2023/06/14 05:45:18;;;;;;;7.68;3.10;;;;;;;;;;5013292;28;20080;-60
2023/06/14 05:47:43;;;;;;;5.10;2.78;;;;;;;;;;5015559;28;20013;-60
2023/06/14 05:50:09;;;;;;;10.35;3.47;;;;;;;;;;5029607;28;20029;-61
2023/06/14 05:52:34;;;;;;;7.93;3.42;;;;;;;;;;5032681;28;20056;-61
2023/06/14 05:54:59;;;;;;;6.10;3.20;;;;;;;;;;5033031;28;20020;-61
2023/06/14 05:57:25;;;;;;;6.53;3.08;;;;;;;;;;5032934;28;20053;-61
2023/06/14 05:59:51;;;;;;;5.90;2.80;;;;;;;;;;5032497;28;20045;-61
2023/06/14 06:02:16;;;;;;;8.15;2.97;;;;;;;;;;5024344;28;20026;-60
2023/06/14 06:04:41;;;;;;;6.38;3.03;;;;;;;;;;5032663;28;20032;-61
2023/06/14 06:07:07;;;;;;;5.78;3.10;;;;;;;;;;5035265;28;20470;-61
2023/06/14 06:09:32;;;;;;;6.78;3.10;;;;;;;;;;5033429;28;20013;-61
2023/06/14 06:11:57;;;;;;;7.18;3.40;;;;;;;;;;5032390;28;20508;-61
2023/06/14 06:14:22;;;;;;;7.13;3.45;;;;;;;;;;5032483;28;20056;-61
2023/06/14 06:16:47;;;;;;;6.28;3.30;;;;;;;;;;5030445;28;20021;-61
2023/06/14 06:19:13;;;;;;;8.07;3.40;;;;;;;;;;5025017;28;20116;-60
2023/06/14 06:21:38;;;;;;;7.63;3.57;;;;;;;;;;5031553;28;20440;-61
2023/06/14 06:24:05;;;;;;;8.23;3.10;;;;;;;;;;5030708;28;20093;-60
2023/06/14 06:26:30;;;;;;;5.70;3.38;;;;;;;;;;5019099;28;20030;-61
2023/06/14 06:28:57;;;;;;;6.28;3.60;;;;;;;;;;5023135;28;20572;-61
2023/06/14 06:31:22;;;;;;;;;;;;;;;;;;5020133;28;20324;-61
2023/06/14 06:33:47;;;;;;;6.18;3.30;;;;;;;;;;5016071;28;19932;-61
2023/06/14 06:36:12;;;;;;;7.22;3.50;;;;;;;;;;5028366;28;20024;-61
2023/06/14 06:38:37;;;;;;;9.13;3.70;;;;;;;;;;5033372;28;20119;-61
2023/06/14 06:41:02;;;;;;;6.05;3.22;;;;;;;;;;5014271;28;20493;-61
2023/06/14 06:43:28;;;;;;;5.60;2.97;;;;;;;;;;5013813;28;20096;-60
2023/06/14 06:45:53;;;;;;;5.17;2.80;;;;;;;;;;5021122;28;20108;-61
2023/06/14 06:48:18;;;;;;;6.00;3.10;;;;;;;;;;5024939;28;20022;-60
2023/06/14 06:50:43;;;;;;;5.65;3.05;;;;;;;;;;5028447;28;20036;-60
2023/06/14 06:53:08;;;;;;;5.60;2.97;;;;;;;;;;5037314;28;20029;-60
2023/06/14 06:55:33;;;;;;;7.07;3.30;;;;;;;;;;5033033;28;20033;-60
2023/06/14 06:58:00;;;;;;;7.60;3.03;;;;;;;;;;5037509;28;20429;-60
2023/06/14 07:00:25;;;;;;;7.78;3.45;;;;;;;;;;5024766;28;20040;-60
2023/06/14 07:02:50;;;;;;;6.40;3.20;;;;;;;;;;5029731;28;20025;-60
2023/06/14 07:05:16;;;;;;;7.78;2.92;;;;;;;;;;5026357;28;20080;-61
2023/06/14 07:07:41;;;;;;;18.08;3.42;;;;;;;;;;5024670;28;20486;-61
2023/06/14 07:10:07;;;;;;;5.70;2.63;;;;;;;;;;5015706;28;20109;-61
2023/06/14 07:12:33;;;;;;;7.60;3.05;;;;;;;;;;5017633;28;20018;-60
2023/06/14 07:14:58;;;;;;;;;;;;;;;;;;5032432;28;20196;-61
2023/06/14 07:17:23;;;;;;;8.32;3.25;;;;;;;;;;5029864;28;19909;-61
2023/06/14 07:19:49;;;;;;;7.93;3.08;;;;;;;;;;5030856;28;20469;-62
2023/06/14 07:22:14;;;;;;;6.55;3.50;;;;;;;;;;5030983;28;20025;-61
2023/06/14 07:24:40;;;;;;;7.67;2.80;;;;;;;;;;5026136;28;20021;-62
2023/06/14 07:27:05;;;;;;;5.72;3.17;;;;;;;;;;5030830;28;20017;-62
2023/06/14 07:29:30;;;;;;;4.83;2.80;;;;;;;;;;5023912;28;20029;-62
2023/06/14 07:31:55;;;;;;;5.75;3.20;;;;;;;;;;5010600;28;20104;-61
2023/06/14 07:34:21;;;;;;;6.32;3.03;;;;;;;;;;5011330;28;20433;-62
2023/06/14 07:36:46;;;;;;;5.95;2.85;;;;;;;;;;5011251;28;20046;-62
2023/06/14 07:39:11;;;;;;;8.33;3.03;;;;;;;;;;5024675;28;20108;-62
2023/06/14 07:41:36;;;;;;;6.63;3.00;;;;;;;;;;5031054;28;20067;-62
2023/06/14 07:44:02;;;;;;;5.60;2.90;;;;;;;;;;5026485;28;20109;-61
2023/06/14 07:46:27;;;;;;;4.85;2.38;;;;;;;;;;5028181;28;20052;-62
2023/06/14 07:48:52;;;;;;;7.33;2.90;;;;;;;;;;5025714;28;20052;-62
2023/06/14 07:51:17;;;;;;;5.10;2.70;;;;;;;;;;5030326;28;20508;-62
2023/06/14 07:53:42;;;;;;;5.85;2.60;;;;;;;;;;5021572;28;20024;-61
2023/06/14 07:56:08;;;;;;;5.45;2.75;;;;;;;;;;5030647;28;20017;-61
2023/06/14 07:58:33;;;;;;;4.20;2.13;;;;;;;;;;5024614;28;24595;-62
2023/06/14 08:00:59;;;;;;;3.85;2.00;;;;;;;;;;5029734;28;20417;-61
2023/06/14 08:03:24;;;;;;;4.68;2.42;;;;;;;;;;5030710;28;20480;-61
2023/06/14 08:05:50;;;;;;;4.80;2.30;;;;;;;;;;5030867;28;20029;-61
2023/06/14 08:08:15;;;;;;;4.50;2.00;;;;;;;;;;5030565;28;20505;-60
2023/06/14 08:10:40;;;;;;;5.28;2.30;;;;;;;;;;5029814;28;20570;-61
2023/06/14 08:13:05;;;;;;;5.30;2.20;;;;;;;;;;5029768;28;20078;-59
2023/06/14 08:15:31;;;;;;;4.82;2.00;;;;;;;;;;5024040;28;20021;-62
2023/06/14 08:17:56;;;;;;;4.05;1.77;;;;;;;;;;5030675;28;20405;-62
2023/06/14 08:20:21;;;;;;;5.97;2.00;;;;;;;;;;5018510;28;20083;-61
2023/06/14 08:22:47;;;;;;;5.57;2.40;;;;;;;;;;5009711;28;20026;-62
2023/06/14 08:25:12;;;;;;;6.60;2.03;;;;;;;;;;5023152;28;20180;-62
2023/06/14 08:27:37;;;;;;;4.22;1.98;;;;;;;;;;5030597;28;20500;-61
2023/06/14 08:30:03;;;;;;;4.67;1.90;;;;;;;;;;5030017;28;20029;-62
2023/06/14 08:32:28;;;;;;;4.65;1.73;;;;;;;;;;5030292;28;20025;-61
2023/06/14 08:34:53;;;;;;;4.10;1.73;;;;;;;;;;5030168;28;20559;-62
2023/06/14 08:37:18;;;;;;;5.18;1.75;;;;;;;;;;5029865;28;20021;-61
2023/06/14 08:39:44;;;;;;;4.23;1.70;;;;;;;;;;5020832;28;20029;-61
2023/06/14 08:42:10;;;;;;;4.32;1.88;;;;;;;;;;5031899;28;20021;-61
2023/06/14 08:44:35;;;;;;;4.25;1.90;;;;;;;;;;5034595;28;20029;-61
2023/06/14 08:47:00;;;;;;;4.25;1.75;;;;;;;;;;5023277;28;20055;-61
2023/06/14 08:49:26;;;;;;;4.00;1.80;;;;;;;;;;5026671;28;20500;-61
2023/06/14 08:51:58;;;;;;;4.15;2.05;;;;;;;;;;5034676;28;20021;-61
2023/06/14 08:54:27;;;;;;;4.43;2.03;;;;;;;;;;5038255;28;20061;-61
2023/06/14 08:56:53;;;;;;;4.13;2.00;;;;;;;;;;5035251;28;20465;-60
2023/06/14 08:59:18;;;;;;;5.47;2.03;;;;;;;;;;5031252;28;20558;-62
2023/06/14 09:01:45;;;;;;;6.03;2.35;;;;;;;;;;5030957;28;20056;-62
2023/06/14 09:04:10;;;;;;;7.28;2.10;;;;;;;;;;5034422;28;20078;-62
2023/06/14 09:06:36;;;;;;;4.90;2.10;;;;;;;;;;5034158;28;20104;-62
2023/06/14 09:09:04;;;;;;;;;;;;;;;;;;5031158;28;20032;-60
2023/06/14 09:11:30;;;;;;;4.18;2.10;;;;;;;;;;5025152;28;20304;-60
2023/06/14 09:13:55;;;;;;;4.65;2.13;;;;;;;;;;5033935;28;20028;-61
2023/06/14 09:16:20;;;;;;;4.83;2.10;;;;;;;;;;5033815;28;20445;-60
2023/06/14 09:18:48;;;;;;;4.57;2.00;;;;;;;;;;5030437;28;20030;-61
2023/06/14 09:21:15;;;;;;;4.45;1.73;;;;;;;;;;5018246;28;20061;-61
2023/06/14 09:23:41;;;;;;;4.75;1.80;;;;;;;;;;5029753;28;20025;-61
2023/06/14 09:26:10;;;;;;;4.80;1.80;;;;;;;;;;5023380;28;20024;-61
2023/06/14 09:28:36;;;;;;;4.50;2.10;;;;;;;;;;5030476;28;20049;-61
2023/06/14 09:31:02;;;;;;;5.35;2.15;;;;;;;;;;5037812;28;20024;-61
2023/06/14 09:33:27;;;;;;;5.63;2.38;;;;;;;;;;5026900;28;20025;-61
2023/06/14 09:35:53;;;;;;;5.05;2.65;;;;;;;;;;5033112;28;20037;-60
2023/06/14 09:38:19;;;;;;;;;;;;;;;;;;5029074;28;20017;-61
2023/06/14 09:40:44;;;;;;;5.32;2.40;;;;;;;;;;5032517;28;20035;-61
2023/06/14 09:43:09;;;;;;;6.77;2.60;;;;;;;;;;5025649;28;20033;-60
2023/06/14 09:45:34;;;;;;;6.25;2.20;;;;;;;;;;5029467;28;20116;-61
2023/06/14 09:48:00;;;;;;;5.47;2.90;;;;;;;;;;5033180;28;20473;-60
2023/06/14 09:50:25;;;;;;;5.20;2.60;;;;;;;;;;5032400;28;20459;-60
2023/06/14 09:52:52;;;;;;;5.57;2.70;;;;;;;;;;5030855;28;20021;-60
2023/06/14 09:55:18;;;;;;;6.47;2.40;;;;;;;;;;5032602;28;20033;-61
2023/06/14 09:57:45;;;;;;;5.50;2.40;;;;;;;;;;5032628;28;20032;-60
2023/06/14 10:00:12;;;;;;;5.32;2.55;;;;;;;;;;5032009;28;20394;-61
2023/06/14 10:02:38;;;;;;;5.22;2.20;;;;;;;;;;5030610;28;20021;-61
2023/06/14 10:05:03;;;;;;;;;;;;;;;;;;5032666;28;20025;-61
2023/06/14 10:07:31;;;;;;;5.77;2.20;;;;;;;;;;5032745;28;19974;-61
2023/06/14 10:09:57;;;;;;;4.70;1.85;;;;;;;;;;5021925;28;20456;-61
2023/06/14 10:12:22;;;;;;;4.90;2.10;;;;;;;;;;5032316;28;20393;-61
2023/06/14 10:14:53;;;;;;;4.25;1.95;;;;;;;;;;5032483;28;20979;-60
2023/06/14 10:17:27;;;;;;;4.45;1.95;;;;;;;;;;5032580;28;20014;-61
2023/06/14 10:19:57;;;;;;;4.80;2.00;;;;;;;;;;5031918;28;20013;-60
2023/06/14 10:22:26;;;;;;;5.00;2.17;;;;;;;;;;5029048;28;20033;-61
2023/06/14 10:24:51;;;;;;;4.65;1.98;;;;;;;;;;5016190;28;20022;-60
2023/06/14 10:27:23;;;;;;;4.70;2.00;;;;;;;;;;5032079;28;20033;-60
2023/06/14 10:29:55;;;;;;;5.53;2.08;;;;;;;;;;5031801;28;20044;-61
2023/06/14 10:32:21;;;;;;;4.68;2.03;;;;;;;;;;5024450;28;20025;-61
2023/06/14 10:34:53;;;;;;;6.50;2.10;;;;;;;;;;5031314;28;20397;-61
2023/06/14 10:37:18;;;;;;;5.10;1.85;;;;;;;;;;5032017;28;20474;-61
2023/06/14 10:39:45;;;;;;;5.73;1.70;;;;;;;;;;5031768;28;20112;-61
2023/06/14 10:42:10;;;;;;;5.13;2.00;;;;;;;;;;5031903;28;20112;-61
2023/06/14 10:44:40;;;;;;;5.50;2.07;;;;;;;;;;5031727;28;20091;-61
2023/06/14 10:47:24;;;;;;;6.10;2.00;;;;;;;;;;5026187;28;20460;-61
2023/06/14 10:49:57;;;;;;;4.90;1.90;;;;;;;;;;5031322;28;20013;-61
2023/06/14 10:52:24;;;;;;;4.82;2.00;;;;;;;;;;5031664;28;20404;-61
2023/06/14 10:55:15;;;;;;;4.40;2.22;;;;;;;;;;5030087;28;20037;-61
2023/06/14 10:57:42;;;;;;;5.32;2.00;;;;;;;;;;5031862;28;20021;-61
2023/06/14 11:00:17;;;;;;;4.80;2.10;;;;;;;;;;5031520;28;20032;-61
2023/06/14 11:03:01;;;;;;;4.70;2.05;;;;;;;;;;5024458;28;20109;-61
2023/06/14 11:05:27;;;;;;;7.07;2.42;;;;;;;;;;5031559;28;20071;-61
2023/06/14 11:08:11;;;;;;;5.88;2.45;;;;;;;;;;5031447;28;20026;-61
2023/06/14 11:10:37;;;;;;;5.70;2.08;;;;;;;;;;5031234;28;20018;-61
2023/06/14 11:13:02;;;;;;;5.63;2.22;;;;;;;;;;5031689;28;20029;-61
2023/06/14 11:15:31;;;;;;;5.80;2.10;;;;;;;;;;5031434;28;20025;-62
2023/06/14 11:17:57;;;;;;;4.63;2.10;;;;;;;;;;5029995;28;20033;-60
2023/06/14 11:20:25;;;;;;;5.97;2.40;;;;;;;;;;5030963;28;20025;-61
2023/06/14 11:22:50;;;;;;;5.75;2.40;;;;;;;;;;5031333;28;20024;-61
2023/06/14 11:25:16;;;;;;;6.38;2.90;;;;;;;;;;5031535;28;20010;-61
2023/06/14 11:27:42;;;;;;;5.13;2.67;;;;;;;;;;5031056;28;20064;-61
2023/06/14 11:30:07;;;;;;;7.40;2.83;;;;;;;;;;5026728;28;20058;-61
2023/06/14 11:32:32;;;;;;;6.07;2.72;;;;;;;;;;5029369;28;20529;-60
2023/06/14 11:34:58;;;;;;;5.10;2.57;;;;;;;;;;5030834;28;20509;-61
2023/06/14 11:37:26;;;;;;;4.88;2.90;;;;;;;;;;5031323;28;20022;-60
2023/06/14 11:39:51;;;;;;;5.03;2.63;;;;;;;;;;5025017;28;20030;-62
2023/06/14 11:42:16;;;;;;;4.93;2.70;;;;;;;;;;5032093;28;20022;-61
2023/06/14 11:44:41;;;;;;;5.13;2.72;;;;;;;;;;5032633;28;20037;-61
2023/06/14 11:47:06;;;;;;;5.43;2.50;;;;;;;;;;5031720;28;20100;-61
2023/06/14 11:49:35;;;;;;;6.10;2.70;;;;;;;;;;5030350;28;20054;-61
2023/06/14 11:52:00;;;;;;;7.05;2.50;;;;;;;;;;5031454;28;20037;-63
2023/06/14 11:54:25;;;;;;;6.10;2.83;;;;;;;;;;5029854;28;20043;-61
2023/06/14 11:56:51;;;;;;;5.37;2.73;;;;;;;;;;5030921;28;20025;-62
2023/06/14 11:59:16;;;;;;;4.80;2.53;;;;;;;;;;5023691;28;20033;-60
2023/06/14 12:01:42;;;;;;;5.63;2.73;;;;;;;;;;5030557;28;20164;-61
2023/06/14 12:04:07;;;;;;;6.28;2.55;;;;;;;;;;5031321;28;20025;-61
2023/06/14 12:06:33;;;;;;;4.97;2.63;;;;;;;;;;5030790;28;20234;-61
2023/06/14 12:08:58;;;;;;;5.32;2.70;;;;;;;;;;5027421;28;20448;-61
2023/06/14 12:11:23;;;;;;;5.32;2.90;;;;;;;;;;5029801;28;20056;-61
2023/06/14 12:13:49;;;;;;;7.17;2.90;;;;;;;;;;5030318;28;20040;-61
2023/06/14 12:16:14;;;;;;;5.28;2.70;;;;;;;;;;5031285;28;20041;-61
2023/06/14 12:18:40;;;;;;;6.85;2.78;;;;;;;;;;5037132;28;20017;-60
2023/06/14 12:21:07;;;;;;;6.53;2.80;;;;;;;;;;5036797;28;20024;-61
2023/06/14 12:23:49;;;;;;;6.32;2.90;;;;;;;;;;5020932;28;20013;-60
2023/06/14 12:26:15;;;;;;;7.57;3.13;;;;;;;;;;5036899;28;20025;-60
2023/06/14 12:28:44;;;;;;;6.15;2.70;;;;;;;;;;5036631;28;20034;-60
2023/06/14 12:31:09;;;;;;;5.55;2.85;;;;;;;;;;5026192;28;20033;-60
2023/06/14 12:33:35;;;;;;;5.13;2.80;;;;;;;;;;5034511;28;20021;-60
2023/06/14 12:36:02;;;;;;;6.45;3.13;;;;;;;;;;5037216;28;20013;-61
2023/06/14 12:38:28;;;;;;;7.05;3.30;;;;;;;;;;5037119;28;20030;-61
2023/06/14 12:40:53;;;;;;;5.40;3.08;;;;;;;;;;5029410;28;20021;-61
2023/06/14 12:43:18;;;;;;;5.32;2.85;;;;;;;;;;5036355;28;20053;-61
2023/06/14 12:45:44;;;;;;;4.78;2.65;;;;;;;;;;5034241;28;20439;-61
2023/06/14 12:48:09;;;;;;;4.90;2.63;;;;;;;;;;5034114;28;20009;-61
2023/06/14 12:50:34;;;;;;;5.03;2.25;;;;;;;;;;5036061;28;20401;-61
2023/06/14 12:52:59;;;;;;;5.07;2.50;;;;;;;;;;5036599;28;20451;-61
2023/06/14 12:55:24;;;;;;;4.93;2.33;;;;;;;;;;5036609;28;20432;-61
2023/06/14 12:57:51;;;;;;;5.53;2.58;;;;;;;;;;5029034;28;20500;-61
2023/06/14 13:00:17;;;;;;;4.93;2.50;;;;;;;;;;5036029;28;20025;-60
2023/06/14 13:02:42;;;;;;;5.15;2.53;;;;;;;;;;5036696;28;20022;-61
2023/06/14 13:05:08;;;;;;;5.43;2.53;;;;;;;;;;5036934;28;20064;-61
2023/06/14 13:07:33;;;;;;;4.83;2.53;;;;;;;;;;5036680;28;20478;-61
2023/06/14 13:09:58;;;;;;;7.45;2.67;;;;;;;;;;5035946;28;20049;-60
2023/06/14 13:12:24;;;;;;;5.30;2.38;;;;;;;;;;5035031;28;20033;-61
2023/06/14 13:14:49;;;;;;;6.00;2.70;;;;;;;;;;5029658;28;20083;-61
2023/06/14 13:17:14;;;;;;;4.87;2.50;;;;;;;;;;5036691;28;20067;-59
2023/06/14 13:19:39;;;;;;;4.40;2.30;;;;;;;;;;5036355;28;20025;-59
2023/06/14 13:22:05;;;;;;;5.33;2.40;;;;;;;;;;5036561;28;20031;-60
2023/06/14 13:24:30;;;;;;;6.10;2.50;;;;;;;;;;5037076;28;20424;-60
2023/06/14 13:26:56;;;;;;;4.78;2.35;;;;;;;;;;5035114;28;20451;-60
2023/06/14 13:29:22;;;;;;;6.03;2.40;;;;;;;;;;5028582;28;20256;-61
2023/06/14 13:31:47;;;;;;;;;;;;;;;;;;5033975;28;20083;-60
2023/06/14 13:34:12;;;;;;;5.38;2.92;;;;;;;;;;5033428;28;19905;-60
2023/06/14 13:36:38;;;;;;;6.53;3.30;;;;;;;;;;5033358;28;20017;-60
2023/06/14 13:39:04;;;;;;;6.65;3.00;;;;;;;;;;5032883;28;20505;-60
2023/06/14 13:41:34;;;;;;;6.57;3.00;;;;;;;;;;5033402;28;20033;-61
2023/06/14 13:44:00;;;;;;;7.72;2.90;;;;;;;;;;5021679;28;20092;-60
2023/06/14 13:46:25;;;;;;;5.30;2.63;;;;;;;;;;5033047;28;20750;-60
2023/06/14 13:48:50;;;;;;;7.13;2.67;;;;;;;;;;5032842;28;20021;-60
2023/06/14 13:51:18;;;;;;;4.93;2.73;;;;;;;;;;5029122;28;20370;-60
2023/06/14 13:53:45;;;;;;;4.43;2.63;;;;;;;;;;5031713;28;20037;-60
2023/06/14 13:56:11;;;;;;;5.03;2.55;;;;;;;;;;5024539;28;20917;-61
2023/06/14 13:58:37;;;;;;;6.25;2.65;;;;;;;;;;5032648;28;20022;-61
2023/06/14 14:01:02;;;;;;;;;;;;;;;;;;5033242;28;20425;-61
2023/06/14 14:03:27;;;;;;;6.05;2.28;;;;;;;;;;5032426;28;20278;-61
2023/06/14 14:05:53;;;;;;;5.03;2.40;;;;;;;;;;5022670;28;20389;-61
2023/06/14 14:08:18;;;;;;;5.70;2.60;;;;;;;;;;5032720;28;20044;-61
2023/06/14 14:10:44;;;;;;;4.35;2.10;;;;;;;;;;5031771;28;20045;-60
2023/06/14 14:13:09;;;;;;;7.53;2.20;;;;;;;;;;5032352;28;20018;-61
2023/06/14 14:15:34;;;;;;;6.50;2.20;;;;;;;;;;5032727;28;20026;-61
2023/06/14 14:17:59;;;;;;;6.10;2.10;;;;;;;;;;5032780;28;20036;-61
2023/06/14 14:20:24;;;;;;;5.23;2.00;;;;;;;;;;5028171;28;20030;-61
2023/06/14 14:22:50;;;;;;;4.43;2.23;;;;;;;;;;5021163;28;20025;-61
2023/06/14 14:25:15;;;;;;;5.63;2.10;;;;;;;;;;5025327;28;20026;-61
2023/06/14 14:27:40;;;;;;;3.93;2.00;;;;;;;;;;5035013;28;20489;-61
2023/06/14 14:30:05;;;;;;;6.72;2.00;;;;;;;;;;5031950;28;20900;-61
2023/06/14 14:32:31;;;;;;;5.68;2.20;;;;;;;;;;5034407;28;20474;-61
2023/06/14 14:34:56;;;;;;;6.73;2.40;;;;;;;;;;5025455;28;20041;-61
2023/06/14 14:37:21;;;;;;;4.50;2.10;;;;;;;;;;5030671;28;20431;-61
2023/06/14 14:39:46;;;;;;;4.40;1.77;;;;;;;;;;5026866;28;20051;-61